createdAt,value
2023-03-10T00:00:01.975Z,99.90
2023-03-10T00:02:36.546Z,99.90
2023-03-10T00:05:08.191Z,99.90
2023-03-10T00:07:39.160Z,99.90
2023-03-10T00:10:12.417Z,99.90
2023-03-10T00:12:45.212Z,99.90
2023-03-10T00:15:15.951Z,99.90
2023-03-10T00:17:47.010Z,99.90
2023-03-10T00:20:21.548Z,99.90
2023-03-10T00:22:52.406Z,99.90
2023-03-10T00:25:23.286Z,99.90
2023-03-10T00:27:54.418Z,99.90
2023-03-10T00:30:26.063Z,99.90
2023-03-10T00:32:56.914Z,99.90
2023-03-10T00:35:27.701Z,99.90
2023-03-10T00:37:59.926Z,99.90
2023-03-10T00:40:31.106Z,99.90
2023-03-10T00:43:02.323Z,99.90
2023-03-10T00:45:33.400Z,99.90
2023-03-10T00:48:04.533Z,99.90
2023-03-10T00:50:36.429Z,99.90
2023-03-10T00:53:07.653Z,99.90
2023-03-10T00:55:38.935Z,99.90
2023-03-10T00:58:10.414Z,99.90
2023-03-10T01:00:41.621Z,99.90
2023-03-10T01:03:13.858Z,99.90
2023-03-10T01:05:44.915Z,99.90
2023-03-10T01:08:19.199Z,99.90
2023-03-10T01:10:51.747Z,99.90
2023-03-10T01:13:23.061Z,99.90
2023-03-10T01:15:55.928Z,99.90
2023-03-10T01:18:28.289Z,99.90
2023-03-10T01:20:59.643Z,99.90
2023-03-10T01:23:31.060Z,99.90
2023-03-10T01:26:01.935Z,99.90
2023-03-10T01:28:32.603Z,99.90
2023-03-10T01:31:03.809Z,99.90
2023-03-10T01:33:36.778Z,99.90
2023-03-10T01:36:12.672Z,99.90
2023-03-10T01:38:45.145Z,99.90
2023-03-10T01:41:18.232Z,99.90
2023-03-10T01:43:52.726Z,99.90
2023-03-10T01:46:53.854Z,99.90
2023-03-10T01:49:46.433Z,99.90
2023-03-10T01:52:22.959Z,99.90
2023-03-10T01:55:03.062Z,99.90
2023-03-10T01:57:42.067Z,99.90
2023-03-10T02:00:14.058Z,99.90
2023-03-10T02:03:13.274Z,99.90
2023-03-10T02:06:11.637Z,99.90
2023-03-10T02:08:55.387Z,99.90
2023-03-10T02:11:27.875Z,99.90
2023-03-10T02:13:59.360Z,99.90
2023-03-10T02:16:30.734Z,99.90
2023-03-10T02:19:01.882Z,99.90
2023-03-10T02:21:48.269Z,99.90
2023-03-10T02:24:36.169Z,99.90
2023-03-10T02:27:17.542Z,99.90
2023-03-10T02:30:16.115Z,99.90
2023-03-10T02:32:57.700Z,99.90
2023-03-10T02:35:29.065Z,99.90
2023-03-10T02:38:06.764Z,99.90
2023-03-10T02:40:39.533Z,99.90
2023-03-10T02:43:16.965Z,99.90
2023-03-10T02:45:50.202Z,99.90
2023-03-10T02:48:32.914Z,99.90
2023-03-10T02:51:08.420Z,99.90
2023-03-10T02:53:41.251Z,99.90
2023-03-10T02:56:12.522Z,99.90
2023-03-10T02:58:45.862Z,99.90
2023-03-10T03:01:17.437Z,99.90
2023-03-10T03:03:50.091Z,99.90
2023-03-10T03:06:21.666Z,99.90
2023-03-10T03:08:52.931Z,99.90
2023-03-10T03:11:26.302Z,99.90
2023-03-10T03:13:59.076Z,99.90
2023-03-10T03:16:30.532Z,99.90
2023-03-10T03:19:05.864Z,99.90
2023-03-10T03:21:37.389Z,99.90
2023-03-10T03:24:08.731Z,99.90
2023-03-10T03:26:42.230Z,99.90
2023-03-10T03:29:20.220Z,99.90
2023-03-10T03:31:51.545Z,99.90
2023-03-10T03:34:26.647Z,99.90
2023-03-10T03:37:04.488Z,99.90
2023-03-10T03:39:40.466Z,99.90
2023-03-10T03:42:12.857Z,99.90
2023-03-10T03:44:51.958Z,99.90
2023-03-10T03:47:24.770Z,99.90
2023-03-10T03:52:40.041Z,99.90
2023-03-10T03:55:18.595Z,99.90
2023-03-10T03:57:52.402Z,99.90
2023-03-10T04:00:26.481Z,99.90
2023-03-10T04:03:05.394Z,99.90
2023-03-10T04:05:37.386Z,99.90
2023-03-10T04:08:09.058Z,99.90
2023-03-10T04:10:40.380Z,99.90
2023-03-10T04:13:11.678Z,99.90
2023-03-10T04:15:42.949Z,99.90
2023-03-10T04:18:14.374Z,99.90
2023-03-10T04:20:46.547Z,99.90
2023-03-10T04:23:17.789Z,99.90
2023-03-10T04:25:49.166Z,99.90
2023-03-10T04:28:22.158Z,99.90
2023-03-10T04:30:56.780Z,99.90
2023-03-10T04:33:31.475Z,98.20
2023-03-10T04:36:19.265Z,99.90
2023-03-10T04:38:53.893Z,99.90
2023-03-10T04:41:30.849Z,99.90
2023-03-10T04:44:02.006Z,99.60
2023-03-10T04:46:34.516Z,99.20
2023-03-10T04:49:07.122Z,99.10
2023-03-10T04:51:38.554Z,99.20
2023-03-10T04:54:09.907Z,99.40
2023-03-10T04:56:42.286Z,99.90
2023-03-10T04:59:13.709Z,99.40
2023-03-10T05:01:45.521Z,99.80
2023-03-10T05:04:16.555Z,98.90
2023-03-10T05:06:51.376Z,99.20
2023-03-10T05:09:30.637Z,97.80
2023-03-10T05:12:02.000Z,98.10
2023-03-10T05:14:35.502Z,99.90
2023-03-10T05:17:07.279Z,99.10
2023-03-10T05:19:38.460Z,98.40
2023-03-10T05:22:13.240Z,99.20
2023-03-10T05:24:44.525Z,97.20
2023-03-10T05:27:16.776Z,95.50
2023-03-10T05:29:47.956Z,97.50
2023-03-10T05:32:24.154Z,97.30
2023-03-10T05:34:56.193Z,99.90
2023-03-10T05:37:28.033Z,99.90
2023-03-10T05:40:00.866Z,97.80
2023-03-10T05:42:33.151Z,99.20
2023-03-10T05:45:06.547Z,99.90
2023-03-10T05:47:38.350Z,99.90
2023-03-10T05:50:12.007Z,99.40
2023-03-10T05:53:24.154Z,99.70
2023-03-10T05:55:56.452Z,98.50
2023-03-10T05:58:28.556Z,99.90
2023-03-10T06:01:00.103Z,99.90
2023-03-10T06:03:31.841Z,98.20
2023-03-10T06:06:09.776Z,99.90
2023-03-10T06:08:43.088Z,99.30
2023-03-10T06:11:15.765Z,99.90
2023-03-10T06:13:47.473Z,97.50
2023-03-10T06:16:21.522Z,98.80
2023-03-10T06:18:56.893Z,96.80
2023-03-10T06:21:29.823Z,94.50
2023-03-10T06:24:02.038Z,97.70
2023-03-10T06:26:33.504Z,96.70
2023-03-10T06:29:04.819Z,94.60
2023-03-10T06:31:36.175Z,97.00
2023-03-10T06:34:13.296Z,97.00
2023-03-10T06:36:44.661Z,97.40
2023-03-10T06:39:15.711Z,96.30
2023-03-10T06:41:46.930Z,98.40
2023-03-10T06:44:21.935Z,98.20
2023-03-10T06:46:56.132Z,98.80
2023-03-10T06:49:33.235Z,98.60
2023-03-10T06:52:04.573Z,97.30
2023-03-10T06:54:36.266Z,98.10
2023-03-10T06:57:08.067Z,98.20
2023-03-10T06:59:40.344Z,99.10
2023-03-10T07:02:14.342Z,96.90
2023-03-10T07:04:45.671Z,97.80
2023-03-10T07:07:18.299Z,99.10
2023-03-10T07:09:49.449Z,99.50
2023-03-10T07:12:23.002Z,98.70
2023-03-10T07:14:54.323Z,98.90
2023-03-10T07:17:25.332Z,99.40
2023-03-10T07:19:58.206Z,99.60
2023-03-10T07:22:29.389Z,99.80
2023-03-10T07:25:00.691Z,98.20
2023-03-10T07:27:32.309Z,99.90
2023-03-10T07:30:03.793Z,99.50
2023-03-10T07:32:35.094Z,96.40
2023-03-10T07:37:51.572Z,97.60
2023-03-10T07:40:26.369Z,97.20
2023-03-10T07:42:57.639Z,97.30
2023-03-10T07:45:32.401Z,96.90
2023-03-10T07:48:04.130Z,96.60
2023-03-10T07:50:35.024Z,97.40
2023-03-10T07:53:06.535Z,96.90
2023-03-10T07:55:39.788Z,97.50
2023-03-10T07:58:12.818Z,97.20
2023-03-10T08:01:04.439Z,97.80
2023-03-10T08:03:37.085Z,98.00
2023-03-10T08:06:11.888Z,97.90
2023-03-10T08:08:46.139Z,98.60
2023-03-10T08:11:17.510Z,98.60
2023-03-10T08:13:50.103Z,97.90
2023-03-10T08:16:32.185Z,98.40
2023-03-10T08:19:03.478Z,98.10
2023-03-10T08:21:34.969Z,98.30
2023-03-10T08:24:06.405Z,96.70
2023-03-10T08:26:37.766Z,97.30
2023-03-10T08:29:09.772Z,99.90
2023-03-10T08:31:41.228Z,98.30
2023-03-10T08:34:12.800Z,99.90
2023-03-10T08:36:44.914Z,99.90
2023-03-10T08:39:16.683Z,99.90
2023-03-10T08:41:50.866Z,99.90
2023-03-10T08:44:22.332Z,99.90
2023-03-10T08:46:55.274Z,99.90
2023-03-10T08:49:34.438Z,99.90
2023-03-10T08:52:07.552Z,99.90
2023-03-10T08:54:39.541Z,99.90
2023-03-10T08:57:11.877Z,99.90
2023-03-10T08:59:44.181Z,99.90
2023-03-10T09:02:16.988Z,99.90
2023-03-10T09:04:48.224Z,99.90
2023-03-10T09:07:19.829Z,99.90
2023-03-10T09:09:51.100Z,99.90
2023-03-10T09:12:22.569Z,99.90
2023-03-10T09:14:53.523Z,99.90
2023-03-10T09:17:24.872Z,99.90
2023-03-10T09:19:55.942Z,99.90
2023-03-10T09:22:27.404Z,99.90
2023-03-10T09:25:00.577Z,99.90
2023-03-10T09:27:31.825Z,99.90
2023-03-10T09:30:03.090Z,99.90
2023-03-10T09:32:34.348Z,99.90
2023-03-10T09:35:05.937Z,99.90
2023-03-10T09:37:37.339Z,99.90
2023-03-10T09:40:11.814Z,99.90
2023-03-10T09:42:50.473Z,99.90
2023-03-10T09:45:49.587Z,99.90
2023-03-10T09:48:38.833Z,99.90
2023-03-10T09:51:25.322Z,99.90
2023-03-10T09:54:14.933Z,99.90
2023-03-10T09:56:48.234Z,99.90
2023-03-10T09:59:41.621Z,99.90
2023-03-10T10:02:24.955Z,99.90
2023-03-10T10:05:03.298Z,99.90
2023-03-10T10:07:45.713Z,99.90
2023-03-10T10:10:20.255Z,99.90
2023-03-10T10:12:54.447Z,99.90
2023-03-10T10:15:29.863Z,99.90
2023-03-10T10:18:24.959Z,99.90
2023-03-10T10:21:08.382Z,99.90
2023-03-10T10:23:42.678Z,99.90
2023-03-10T10:26:22.699Z,99.90
2023-03-10T10:28:59.189Z,99.90
2023-03-10T10:31:36.294Z,99.90
2023-03-10T10:34:25.090Z,99.90
2023-03-10T10:37:03.964Z,99.90
2023-03-10T10:39:43.740Z,99.90
2023-03-10T10:42:26.151Z,99.90
2023-03-10T10:44:59.674Z,99.90
2023-03-10T10:47:40.145Z,99.90
2023-03-10T10:50:32.141Z,99.90
2023-03-10T10:53:16.975Z,99.90
2023-03-10T10:56:00.366Z,99.90
2023-03-10T10:58:40.588Z,99.90
2023-03-10T11:01:19.445Z,99.90
2023-03-10T11:03:51.354Z,99.90
2023-03-10T11:06:39.584Z,99.90
2023-03-10T11:09:31.190Z,99.90
2023-03-10T11:12:23.725Z,99.90
2023-03-10T11:15:03.596Z,99.90
2023-03-10T11:18:17.059Z,99.90
2023-03-10T11:20:57.773Z,99.90
2023-03-10T11:23:33.363Z,99.90
2023-03-10T11:26:20.106Z,99.90
2023-03-10T11:29:24.067Z,99.90
2023-03-10T11:32:23.457Z,99.90
2023-03-10T11:34:55.836Z,99.90
2023-03-10T11:37:33.912Z,99.90
2023-03-10T11:40:30.064Z,99.90
2023-03-10T11:43:20.591Z,99.90
2023-03-10T11:45:56.165Z,99.90
2023-03-10T11:48:45.793Z,99.90
2023-03-10T11:51:36.376Z,99.90
2023-03-10T11:54:25.681Z,99.90
2023-03-10T11:57:24.149Z,99.90
2023-03-10T12:00:09.520Z,99.90
2023-03-10T12:03:06.636Z,99.90
2023-03-10T12:05:51.652Z,99.90
2023-03-10T12:08:26.633Z,99.90
2023-03-10T12:11:20.194Z,99.90
2023-03-10T12:13:54.601Z,99.90
2023-03-10T12:16:35.430Z,99.90
2023-03-10T12:19:10.384Z,99.90
2023-03-10T12:21:41.864Z,99.90
2023-03-10T12:24:48.575Z,99.90
2023-03-10T12:27:19.957Z,99.90
2023-03-10T12:29:51.521Z,99.90
2023-03-10T12:32:41.879Z,99.90
2023-03-10T12:35:36.825Z,99.90
2023-03-10T12:38:34.266Z,99.90
2023-03-10T12:41:06.359Z,99.90
2023-03-10T12:44:01.623Z,99.90
2023-03-10T12:46:49.654Z,99.90
2023-03-10T12:49:53.067Z,99.90
2023-03-10T12:52:46.728Z,99.90
2023-03-10T12:55:18.422Z,99.90
2023-03-10T12:58:14.789Z,99.90
2023-03-10T13:01:10.712Z,99.90
2023-03-10T13:03:45.434Z,99.90
2023-03-10T13:06:35.361Z,99.90
2023-03-10T13:09:20.717Z,99.90
2023-03-10T13:12:02.200Z,99.90
2023-03-10T13:14:40.533Z,99.90
2023-03-10T13:17:32.110Z,99.90
2023-03-10T13:20:07.730Z,99.90
2023-03-10T13:22:39.221Z,99.90
2023-03-10T13:25:16.850Z,99.90
2023-03-10T13:27:49.226Z,99.90
2023-03-10T13:30:31.969Z,99.90
2023-03-10T13:33:06.787Z,99.90
2023-03-10T13:38:28.802Z,99.90
2023-03-10T13:41:00.154Z,99.90
2023-03-10T13:43:40.328Z,99.90
2023-03-10T13:46:27.257Z,99.90
2023-03-10T13:52:27.771Z,99.90
2023-03-10T13:55:16.651Z,99.90
2023-03-10T13:57:50.523Z,99.90
2023-03-10T14:00:22.771Z,99.90
2023-03-10T14:02:58.604Z,99.90
2023-03-10T14:05:47.361Z,99.90
2023-03-10T14:08:34.048Z,99.90
2023-03-10T14:11:37.943Z,99.90
2023-03-10T14:14:12.997Z,99.90
2023-03-10T14:17:04.805Z,99.90
2023-03-10T14:19:42.111Z,99.90
2023-03-10T14:22:42.247Z,99.90
2023-03-10T14:25:15.743Z,99.90
2023-03-10T14:28:00.894Z,99.90
2023-03-10T14:30:35.094Z,99.90
2023-03-10T14:33:25.594Z,99.90
2023-03-10T14:38:42.748Z,99.90
2023-03-10T14:41:15.549Z,99.90
2023-03-10T14:43:50.341Z,99.90
2023-03-10T14:46:24.198Z,99.90
2023-03-10T14:48:55.877Z,99.90
2023-03-10T14:51:36.115Z,99.90
2023-03-10T14:54:24.813Z,99.90
2023-03-10T14:57:18.190Z,99.90
2023-03-10T14:59:54.151Z,99.90
2023-03-10T15:02:39.704Z,99.90
2023-03-10T15:05:21.626Z,99.90
2023-03-10T15:07:56.670Z,99.90
2023-03-10T15:10:39.142Z,99.90
2023-03-10T15:13:15.377Z,99.90
2023-03-10T15:15:48.999Z,99.90
2023-03-10T15:18:26.176Z,99.90
2023-03-10T15:21:25.935Z,99.90
2023-03-10T15:23:59.520Z,99.90
2023-03-10T15:26:32.222Z,99.90
2023-03-10T15:29:04.782Z,99.90
2023-03-10T15:31:37.343Z,99.90
2023-03-10T15:34:08.821Z,99.90
2023-03-10T15:36:40.275Z,99.90
2023-03-10T15:39:18.844Z,99.90
2023-03-10T15:41:57.611Z,99.90
2023-03-10T15:44:28.701Z,99.90
2023-03-10T15:49:43.842Z,99.90
2023-03-10T15:52:15.561Z,99.90
2023-03-10T15:54:47.012Z,99.90
2023-03-10T15:57:19.498Z,99.90
2023-03-10T15:59:55.158Z,99.90
2023-03-10T16:02:27.332Z,99.90
2023-03-10T16:04:59.775Z,99.90
2023-03-10T16:07:32.270Z,99.90
2023-03-10T16:10:03.827Z,99.90
2023-03-10T16:15:41.432Z,99.90
2023-03-10T16:18:34.971Z,99.90
2023-03-10T16:21:10.046Z,99.90
2023-03-10T16:23:41.792Z,99.90
2023-03-10T16:26:14.803Z,99.90
2023-03-10T16:28:48.789Z,99.90
2023-03-10T16:31:21.769Z,99.90
2023-03-10T16:33:54.125Z,99.90
2023-03-10T16:36:28.376Z,99.90
2023-03-10T16:38:59.851Z,99.90
2023-03-10T16:44:40.856Z,99.90
2023-03-10T16:49:58.183Z,99.90
2023-03-10T16:52:29.516Z,99.90
2023-03-10T16:55:21.684Z,99.90
2023-03-10T16:57:53.549Z,99.90
2023-03-10T17:00:27.999Z,99.90
2023-03-10T17:03:01.578Z,99.90
2023-03-10T17:05:33.113Z,99.90
2023-03-10T17:08:10.600Z,99.90
2023-03-10T17:10:43.870Z,99.90
2023-03-10T17:13:15.801Z,99.90
2023-03-10T17:15:57.836Z,99.90
2023-03-10T17:18:29.177Z,99.90
2023-03-10T17:21:00.344Z,99.90
2023-03-10T17:23:34.449Z,99.90
2023-03-10T17:26:05.796Z,99.90
2023-03-10T17:28:37.043Z,99.90
2023-03-10T17:31:15.160Z,99.90
2023-03-10T17:33:46.280Z,99.90
2023-03-10T17:39:10.984Z,99.90
2023-03-10T17:41:44.139Z,99.90
2023-03-10T17:44:17.083Z,99.90
2023-03-10T17:47:08.063Z,99.90
2023-03-10T17:49:39.449Z,99.90
2023-03-10T17:52:11.722Z,99.90
2023-03-10T17:54:44.878Z,99.90
2023-03-10T17:57:16.107Z,99.90
2023-03-10T17:59:47.299Z,99.90
2023-03-10T18:02:19.806Z,99.90
2023-03-10T18:04:51.032Z,99.90
2023-03-10T18:07:22.257Z,99.90
2023-03-10T18:09:53.556Z,99.90
2023-03-10T18:12:24.782Z,99.90
2023-03-10T18:14:56.031Z,99.90
2023-03-10T18:17:30.833Z,99.90
2023-03-10T18:20:02.801Z,99.90
2023-03-10T18:22:37.217Z,99.90
2023-03-10T18:25:08.760Z,99.90
2023-03-10T18:27:40.028Z,99.90
2023-03-10T18:30:12.944Z,99.90
2023-03-10T18:32:44.800Z,99.90
2023-03-10T18:35:15.880Z,99.90
2023-03-10T18:37:46.840Z,99.90
2023-03-10T18:40:19.097Z,99.90
2023-03-10T18:42:51.018Z,99.90
2023-03-10T18:45:21.795Z,99.90
2023-03-10T18:47:52.527Z,99.90
2023-03-10T18:50:23.318Z,99.90
2023-03-10T18:52:54.108Z,99.90
2023-03-10T18:55:25.178Z,99.90
2023-03-10T18:57:55.987Z,99.90
2023-03-10T19:00:27.243Z,99.90
2023-03-10T19:03:01.452Z,99.90
2023-03-10T19:05:32.240Z,99.90
2023-03-10T19:08:03.310Z,99.90
2023-03-10T19:10:35.030Z,99.90
2023-03-10T19:13:06.073Z,99.90
2023-03-10T19:15:38.496Z,99.90
2023-03-10T19:18:09.364Z,99.90
2023-03-10T19:20:41.464Z,99.90
2023-03-10T19:23:12.588Z,99.90
2023-03-10T19:25:43.423Z,99.90
2023-03-10T19:28:14.098Z,99.90
2023-03-10T19:30:45.177Z,99.90
2023-03-10T19:33:15.900Z,99.90
2023-03-10T19:35:47.348Z,99.90
2023-03-10T19:38:23.042Z,99.90
2023-03-10T19:40:54.117Z,99.90
2023-03-10T19:43:25.189Z,99.90
2023-03-10T19:46:06.852Z,99.90
2023-03-10T19:48:38.495Z,99.90
2023-03-10T19:51:10.502Z,99.90
2023-03-10T19:53:41.767Z,99.90
2023-03-10T19:56:12.552Z,99.90
2023-03-10T19:58:43.473Z,99.90
2023-03-10T20:01:25.829Z,99.90
2023-03-10T20:04:02.196Z,99.90
2023-03-10T20:06:33.338Z,99.90
2023-03-10T20:09:05.367Z,99.90
2023-03-10T20:11:36.814Z,99.90
2023-03-10T20:14:08.235Z,99.90
2023-03-10T20:16:39.240Z,99.90
2023-03-10T20:19:10.083Z,99.90
2023-03-10T20:21:42.868Z,99.90
2023-03-10T20:24:13.898Z,99.90
2023-03-10T20:26:45.626Z,99.90
2023-03-10T20:29:16.906Z,99.90
2023-03-10T20:31:48.038Z,99.90
2023-03-10T20:34:23.553Z,99.90
2023-03-10T20:36:54.555Z,99.90
2023-03-10T20:39:26.166Z,99.90
2023-03-10T20:41:57.220Z,99.90
2023-03-10T20:44:28.476Z,99.90
2023-03-10T20:46:59.217Z,99.90
2023-03-10T20:49:30.356Z,99.90
2023-03-10T20:52:01.436Z,99.90
2023-03-10T20:54:32.526Z,99.90
2023-03-10T20:57:03.562Z,99.90
2023-03-10T20:59:34.273Z,99.90
2023-03-10T21:02:06.847Z,99.90
2023-03-10T21:04:37.809Z,99.90
2023-03-10T21:07:08.827Z,99.90
2023-03-10T21:09:39.942Z,99.90
2023-03-10T21:12:11.706Z,99.90
2023-03-10T21:14:42.682Z,99.90
2023-03-10T21:17:15.636Z,99.90
2023-03-10T21:19:46.338Z,99.90
2023-03-10T21:22:16.990Z,99.90
2023-03-10T21:24:47.933Z,99.90
2023-03-10T21:27:19.047Z,99.90
2023-03-10T21:29:50.203Z,99.90
2023-03-10T21:32:22.662Z,99.90
2023-03-10T21:34:54.798Z,99.90
2023-03-10T21:37:25.950Z,99.90
2023-03-10T21:39:56.758Z,99.90
2023-03-10T21:42:28.112Z,99.90
2023-03-10T21:44:59.147Z,99.90
2023-03-10T21:47:30.213Z,99.90
2023-03-10T21:50:01.238Z,99.90
2023-03-10T21:52:32.229Z,99.90
2023-03-10T21:55:02.972Z,99.90
2023-03-10T21:57:39.205Z,99.90
2023-03-10T22:00:11.114Z,99.90
2023-03-10T22:02:42.500Z,99.90
2023-03-10T22:05:20.701Z,99.90
2023-03-10T22:07:54.067Z,99.90
2023-03-10T22:10:25.038Z,99.90
2023-03-10T22:12:56.177Z,99.90
2023-03-10T22:15:29.035Z,99.90
2023-03-10T22:18:01.039Z,99.90
2023-03-10T22:20:31.882Z,99.90
2023-03-10T22:23:02.908Z,99.90
2023-03-10T22:25:36.257Z,99.90
2023-03-10T22:28:07.667Z,99.90
2023-03-10T22:30:40.235Z,99.90
2023-03-10T22:33:11.762Z,99.90
2023-03-10T22:35:42.877Z,99.90
2023-03-10T22:38:15.168Z,99.90
2023-03-10T22:40:46.186Z,99.90
2023-03-10T22:43:18.593Z,99.90
2023-03-10T22:45:49.572Z,99.90
2023-03-10T22:48:24.001Z,99.90
2023-03-10T22:50:55.090Z,99.90
2023-03-10T22:53:26.210Z,99.90
2023-03-10T22:55:59.546Z,99.90
2023-03-10T22:58:30.841Z,99.90
2023-03-10T23:01:21.452Z,99.90
2023-03-10T23:03:52.150Z,99.90
2023-03-10T23:06:24.188Z,99.90
2023-03-10T23:08:55.226Z,99.90
2023-03-10T23:11:29.497Z,99.90
2023-03-10T23:14:04.757Z,99.90
2023-03-10T23:16:38.052Z,99.90
2023-03-10T23:19:10.380Z,99.90
2023-03-10T23:21:41.205Z,99.90
2023-03-10T23:24:12.570Z,99.90
2023-03-10T23:26:43.652Z,99.90
2023-03-10T23:29:14.986Z,99.90
2023-03-10T23:31:45.857Z,99.90
2023-03-10T23:34:16.948Z,99.90
2023-03-10T23:36:50.803Z,99.90
2023-03-10T23:39:34.529Z,99.90
2023-03-10T23:42:05.444Z,99.90
2023-03-10T23:44:36.425Z,99.90
2023-03-10T23:47:07.354Z,99.90
2023-03-10T23:49:38.218Z,99.90
2023-03-10T23:52:08.975Z,99.90
2023-03-10T23:54:39.997Z,99.90
2023-03-10T23:57:10.822Z,99.90
2023-03-10T23:59:42.841Z,99.90
